sensor_id;sensor_type;location;lat;lon;timestamp;pressure;altitude;pressure_sealevel;temperature;humidity
21838;BME280;11081;45.946;6.140;2023-08-17T00:01:00;95258.63;;;24.47;48.82
21838;BME280;11081;45.946;6.140;2023-08-17T00:03:28;95261.16;;;24.52;49.57
21838;BME280;11081;45.946;6.140;2023-08-17T00:05:56;95253.63;;;24.54;49.43
21838;BME280;11081;45.946;6.140;2023-08-17T00:08:24;95248.28;;;24.54;48.40
21838;BME280;11081;45.946;6.140;2023-08-17T00:10:52;95251.25;;;24.52;48.48
21838;BME280;11081;45.946;6.140;2023-08-17T00:13:21;95241.84;;;24.55;48.63
21838;BME280;11081;45.946;6.140;2023-08-17T00:15:49;95235.56;;;24.51;48.91
21838;BME280;11081;45.946;6.140;2023-08-17T00:18:17;95224.41;;;24.49;48.40
21838;BME280;11081;45.946;6.140;2023-08-17T00:20:45;95227.69;;;24.46;48.46
21838;BME280;11081;45.946;6.140;2023-08-17T00:23:13;95226.41;;;24.43;48.21
21838;BME280;11081;45.946;6.140;2023-08-17T00:25:41;95230.53;;;24.49;48.18
21838;BME280;11081;45.946;6.140;2023-08-17T00:28:09;95230.06;;;24.56;48.54
21838;BME280;11081;45.946;6.140;2023-08-17T00:30:38;95233.84;;;24.55;48.58
21838;BME280;11081;45.946;6.140;2023-08-17T00:33:06;95231.94;;;24.47;48.32
21838;BME280;11081;45.946;6.140;2023-08-17T00:35:34;95219.06;;;24.49;47.81
21838;BME280;11081;45.946;6.140;2023-08-17T00:38:03;95205.56;;;24.54;47.61
21838;BME280;11081;45.946;6.140;2023-08-17T00:40:31;95194.66;;;24.64;47.20
21838;BME280;11081;45.946;6.140;2023-08-17T00:42:59;95189.63;;;24.71;46.64
21838;BME280;11081;45.946;6.140;2023-08-17T00:45:27;95220.63;;;24.81;46.45
21838;BME280;11081;45.946;6.140;2023-08-17T00:47:57;95225.44;;;24.70;47.22
21838;BME280;11081;45.946;6.140;2023-08-17T00:50:27;95245.88;;;24.21;49.26
21838;BME280;11081;45.946;6.140;2023-08-17T00:52:56;95242.75;;;24.19;49.39
21838;BME280;11081;45.946;6.140;2023-08-17T00:55:27;95240.31;;;24.31;48.77
21838;BME280;11081;45.946;6.140;2023-08-17T00:57:56;95224.19;;;24.37;48.52
21838;BME280;11081;45.946;6.140;2023-08-17T01:00:25;95217.75;;;24.38;48.14
21838;BME280;11081;45.946;6.140;2023-08-17T01:02:56;95226.88;;;24.37;48.92
21838;BME280;11081;45.946;6.140;2023-08-17T01:05:24;95225.25;;;24.36;48.88
21838;BME280;11081;45.946;6.140;2023-08-17T01:07:55;95221.16;;;24.29;49.04
21838;BME280;11081;45.946;6.140;2023-08-17T01:10:23;95229.66;;;24.31;49.49
21838;BME280;11081;45.946;6.140;2023-08-17T01:12:56;95231.84;;;24.29;49.01
21838;BME280;11081;45.946;6.140;2023-08-17T01:15:34;95235.94;;;24.36;49.27
21838;BME280;11081;45.946;6.140;2023-08-17T01:18:11;95234.38;;;24.35;49.60
21838;BME280;11081;45.946;6.140;2023-08-17T01:20:43;95238.13;;;24.33;49.69
21838;BME280;11081;45.946;6.140;2023-08-17T01:23:12;95238.91;;;24.34;49.80
21838;BME280;11081;45.946;6.140;2023-08-17T01:25:40;95232.78;;;24.33;49.44
21838;BME280;11081;45.946;6.140;2023-08-17T01:28:08;95232.78;;;24.33;49.62
21838;BME280;11081;45.946;6.140;2023-08-17T01:30:42;95231.22;;;24.32;50.17
21838;BME280;11081;45.946;6.140;2023-08-17T01:33:17;95231.84;;;24.29;49.58
21838;BME280;11081;45.946;6.140;2023-08-17T01:35:51;95226.19;;;24.31;49.72
21838;BME280;11081;45.946;6.140;2023-08-17T01:38:23;95229.66;;;24.31;50.32
21838;BME280;11081;45.946;6.140;2023-08-17T01:40:53;95234.97;;;24.31;50.21
21838;BME280;11081;45.946;6.140;2023-08-17T01:43:21;95228.66;;;24.27;50.28
21838;BME280;11081;45.946;6.140;2023-08-17T01:45:50;95225.31;;;24.22;50.77
21838;BME280;11081;45.946;6.140;2023-08-17T01:48:19;95218.25;;;24.17;50.35
21838;BME280;11081;45.946;6.140;2023-08-17T01:50:47;95210.34;;;24.12;50.67
21838;BME280;11081;45.946;6.140;2023-08-17T01:53:18;95211.75;;;24.10;50.50
21838;BME280;11081;45.946;6.140;2023-08-17T01:55:48;95222.59;;;24.13;49.89
21838;BME280;11081;45.946;6.140;2023-08-17T01:58:19;95221.41;;;24.19;49.34
21838;BME280;11081;45.946;6.140;2023-08-17T02:00:48;95231.31;;;24.27;49.50
21838;BME280;11081;45.946;6.140;2023-08-17T02:03:16;95230.84;;;24.25;50.36
21838;BME280;11081;45.946;6.140;2023-08-17T02:05:44;95229.75;;;23.82;51.29
21838;BME280;11081;45.946;6.140;2023-08-17T02:08:14;95234.09;;;23.41;52.61
21838;BME280;11081;45.946;6.140;2023-08-17T02:10:42;95233.66;;;23.48;52.46
21838;BME280;11081;45.946;6.140;2023-08-17T02:13:11;95225.38;;;23.63;52.35
21838;BME280;11081;45.946;6.140;2023-08-17T02:15:44;95224.16;;;23.69;51.46
21838;BME280;11081;45.946;6.140;2023-08-17T02:18:12;95221.88;;;23.77;51.33
21838;BME280;11081;45.946;6.140;2023-08-17T02:20:40;95236.97;;;23.81;51.33
21838;BME280;11081;45.946;6.140;2023-08-17T02:23:10;95232.44;;;23.82;51.23
21838;BME280;11081;45.946;6.140;2023-08-17T02:25:38;95233.38;;;23.86;50.95
21838;BME280;11081;45.946;6.140;2023-08-17T02:28:06;95228.06;;;23.86;50.41
21838;BME280;11081;45.946;6.140;2023-08-17T02:30:36;95230.84;;;23.81;50.58
21838;BME280;11081;45.946;6.140;2023-08-17T02:33:04;95236.00;;;23.77;50.54
21838;BME280;11081;45.946;6.140;2023-08-17T02:35:33;95226.72;;;23.75;50.28
21838;BME280;11081;45.946;6.140;2023-08-17T02:38:01;95233.63;;;23.76;50.30
21838;BME280;11081;45.946;6.140;2023-08-17T02:40:29;95226.13;;;23.78;50.44
21838;BME280;11081;45.946;6.140;2023-08-17T02:42:57;95226.13;;;23.78;50.88
21838;BME280;11081;45.946;6.140;2023-08-17T02:45:25;95226.13;;;23.78;51.13
21838;BME280;11081;45.946;6.140;2023-08-17T02:47:54;95231.47;;;23.78;50.61
21838;BME280;11081;45.946;6.140;2023-08-17T02:50:22;95230.97;;;23.76;51.20
21838;BME280;11081;45.946;6.140;2023-08-17T02:52:50;95229.88;;;23.77;50.94
21838;BME280;11081;45.946;6.140;2023-08-17T02:55:18;95226.72;;;23.75;51.01
21838;BME280;11081;45.946;6.140;2023-08-17T02:57:46;95225.72;;;23.70;51.27
21838;BME280;11081;45.946;6.140;2023-08-17T03:00:14;95224.47;;;23.68;51.45
21838;BME280;11081;45.946;6.140;2023-08-17T03:02:44;95229.50;;;23.69;51.87
21838;BME280;11081;45.946;6.140;2023-08-17T03:05:14;95218.81;;;23.69;52.07
21838;BME280;11081;45.946;6.140;2023-08-17T03:07:42;95214.72;;;23.63;51.83
21838;BME280;11081;45.946;6.140;2023-08-17T03:10:10;95220.66;;;23.60;51.88
21838;BME280;11081;45.946;6.140;2023-08-17T03:12:38;95218.59;;;23.57;52.33
21838;BME280;11081;45.946;6.140;2023-08-17T03:15:07;95219.38;;;23.58;52.45
21838;BME280;11081;45.946;6.140;2023-08-17T03:17:35;95224.19;;;23.56;52.16
21838;BME280;11081;45.946;6.140;2023-08-17T03:20:04;95233.50;;;23.58;52.63
21838;BME280;11081;45.946;6.140;2023-08-17T03:22:35;95231.91;;;23.57;52.47
21838;BME280;11081;45.946;6.140;2023-08-17T03:25:04;95236.25;;;23.53;52.25
21838;BME280;11081;45.946;6.140;2023-08-17T03:27:32;95229.59;;;23.51;52.61
21838;BME280;11081;45.946;6.140;2023-08-17T03:30:03;95228.53;;;23.52;52.52
21838;BME280;11081;45.946;6.140;2023-08-17T03:32:32;95233.06;;;23.51;52.16
21838;BME280;11081;45.946;6.140;2023-08-17T03:35:00;95224.75;;;23.53;52.36
21838;BME280;11081;45.946;6.140;2023-08-17T03:37:28;95229.91;;;23.49;51.59
21838;BME280;11081;45.946;6.140;2023-08-17T03:39:57;95225.78;;;23.43;51.75
21838;BME280;11081;45.946;6.140;2023-08-17T03:42:29;95225.41;;;23.36;51.69
21838;BME280;11081;45.946;6.140;2023-08-17T03:44:57;95216.34;;;23.37;51.96
21838;BME280;11081;45.946;6.140;2023-08-17T03:47:26;95229.19;;;23.35;51.87
21838;BME280;11081;45.946;6.140;2023-08-17T03:49:54;95229.19;;;23.35;52.08
21838;BME280;11081;45.946;6.140;2023-08-17T03:52:22;95243.59;;;23.34;52.28
21838;BME280;11081;45.946;6.140;2023-08-17T03:54:50;95247.34;;;23.33;52.59
21838;BME280;11081;45.946;6.140;2023-08-17T03:57:20;95251.88;;;23.19;53.57
21838;BME280;11081;45.946;6.140;2023-08-17T03:59:48;95263.13;;;23.16;53.31
21838;BME280;11081;45.946;6.140;2023-08-17T04:02:16;95273.78;;;23.16;53.53
21838;BME280;11081;45.946;6.140;2023-08-17T04:04:44;95274.66;;;23.11;54.25
21838;BME280;11081;45.946;6.140;2023-08-17T04:07:20;95271.19;;;23.10;53.85
21838;BME280;11081;45.946;6.140;2023-08-17T04:09:48;95272.50;;;23.13;53.95
21838;BME280;11081;45.946;6.140;2023-08-17T04:12:16;95276.75;;;23.14;54.18
21838;BME280;11081;45.946;6.140;2023-08-17T04:14:45;95275.16;;;23.13;54.69
21838;BME280;11081;45.946;6.140;2023-08-17T04:17:13;95279.91;;;23.16;54.41
21838;BME280;11081;45.946;6.140;2023-08-17T04:19:41;95282.47;;;23.21;55.01
21838;BME280;11081;45.946;6.140;2023-08-17T04:22:10;95294.88;;;23.26;54.69
21838;BME280;11081;45.946;6.140;2023-08-17T04:24:38;95298.03;;;23.28;55.51
21838;BME280;11081;45.946;6.140;2023-08-17T04:27:06;95294.50;;;23.19;56.87
21838;BME280;11081;45.946;6.140;2023-08-17T04:29:34;95286.63;;;23.14;58.62
21838;BME280;11081;45.946;6.140;2023-08-17T04:32:04;95285.59;;;23.09;59.15
21838;BME280;11081;45.946;6.140;2023-08-17T04:34:32;95287.41;;;23.00;60.41
21838;BME280;11081;45.946;6.140;2023-08-17T04:37:00;95284.84;;;22.95;60.80
21838;BME280;11081;45.946;6.140;2023-08-17T04:39:29;95277.50;;;22.87;60.86
21838;BME280;11081;45.946;6.140;2023-08-17T04:41:57;95279.69;;;22.85;60.93
21838;BME280;11081;45.946;6.140;2023-08-17T04:44:30;95283.31;;;22.89;60.10
21838;BME280;11081;45.946;6.140;2023-08-17T04:46:59;95287.97;;;22.97;60.18
21838;BME280;11081;45.946;6.140;2023-08-17T04:49:28;95283.84;;;23.05;60.42
21838;BME280;11081;45.946;6.140;2023-08-17T04:51:56;95277.63;;;23.09;59.82
21838;BME280;11081;45.946;6.140;2023-08-17T04:54:24;95282.38;;;23.13;61.06
21838;BME280;11081;45.946;6.140;2023-08-17T04:56:52;95284.03;;;23.08;60.40
21838;BME280;11081;45.946;6.140;2023-08-17T04:59:20;95285.13;;;23.07;60.21
21838;BME280;11081;45.946;6.140;2023-08-17T05:01:48;95287.19;;;23.10;60.94
21838;BME280;11081;45.946;6.140;2023-08-17T05:04:16;95292.50;;;22.83;62.75
21838;BME280;11081;45.946;6.140;2023-08-17T05:06:45;95301.19;;;22.24;64.61
21838;BME280;11081;45.946;6.140;2023-08-17T05:09:14;95320.69;;;22.19;63.93
21838;BME280;11081;45.946;6.140;2023-08-17T05:11:42;95326.06;;;22.33;62.54
21838;BME280;11081;45.946;6.140;2023-08-17T05:14:10;95333.47;;;22.17;62.82
21838;BME280;11081;45.946;6.140;2023-08-17T05:16:38;95328.75;;;22.14;62.75
21838;BME280;11081;45.946;6.140;2023-08-17T05:19:06;95330.31;;;22.34;62.35
21838;BME280;11081;45.946;6.140;2023-08-17T05:21:35;95331.84;;;22.54;62.20
21838;BME280;11081;45.946;6.140;2023-08-17T05:24:04;95325.56;;;22.63;61.44
21838;BME280;11081;45.946;6.140;2023-08-17T05:26:33;95331.31;;;22.70;60.67
21838;BME280;11081;45.946;6.140;2023-08-17T05:29:01;95330.84;;;22.82;60.03
21838;BME280;11081;45.946;6.140;2023-08-17T05:31:29;95333.34;;;22.92;60.29
21838;BME280;11081;45.946;6.140;2023-08-17T05:33:57;95330.00;;;23.00;59.48
21838;BME280;11081;45.946;6.140;2023-08-17T05:36:25;95347.16;;;23.08;59.64
21838;BME280;11081;45.946;6.140;2023-08-17T05:38:53;95336.72;;;23.11;60.19
21838;BME280;11081;45.946;6.140;2023-08-17T05:41:22;95347.38;;;23.11;59.96
21838;BME280;11081;45.946;6.140;2023-08-17T05:43:50;95342.53;;;23.14;59.40
21838;BME280;11081;45.946;6.140;2023-08-17T05:46:18;95347.78;;;23.19;59.40
21838;BME280;11081;45.946;6.140;2023-08-17T05:48:46;95352.50;;;23.22;59.41
21838;BME280;11081;45.946;6.140;2023-08-17T05:51:14;95347.19;;;23.22;59.81
21838;BME280;11081;45.946;6.140;2023-08-17T05:53:43;95336.53;;;23.22;59.45
21838;BME280;11081;45.946;6.140;2023-08-17T05:56:11;95346.59;;;23.25;59.40
21838;BME280;11081;45.946;6.140;2023-08-17T05:58:40;95352.88;;;23.29;59.17
21838;BME280;11081;45.946;6.140;2023-08-17T06:01:10;95359.41;;;23.23;60.63
21838;BME280;11081;45.946;6.140;2023-08-17T06:03:38;95363.94;;;23.08;60.99
21838;BME280;11081;45.946;6.140;2023-08-17T06:06:06;95370.44;;;23.02;61.39
21838;BME280;11081;45.946;6.140;2023-08-17T06:08:35;95365.69;;;22.99;61.48
21838;BME280;11081;45.946;6.140;2023-08-17T06:11:03;95372.59;;;23.00;61.67
21838;BME280;11081;45.946;6.140;2023-08-17T06:13:31;95376.50;;;22.89;62.94
21838;BME280;11081;45.946;6.140;2023-08-17T06:16:00;95373.34;;;22.87;63.43
21838;BME280;11081;45.946;6.140;2023-08-17T06:18:29;95379.81;;;22.81;64.04
21838;BME280;11081;45.946;6.140;2023-08-17T06:20:57;95375.16;;;22.92;62.50
21838;BME280;11081;45.946;6.140;2023-08-17T06:23:25;95373.69;;;22.99;62.45
21838;BME280;11081;45.946;6.140;2023-08-17T06:25:56;95380.50;;;23.05;62.06
21838;BME280;11081;45.946;6.140;2023-08-17T06:28:24;95384.03;;;23.01;62.38
21838;BME280;11081;45.946;6.140;2023-08-17T06:30:52;95378.53;;;22.97;62.07
21838;BME280;11081;45.946;6.140;2023-08-17T06:33:22;95374.94;;;22.88;62.94
21838;BME280;11081;45.946;6.140;2023-08-17T06:35:50;95382.56;;;22.76;64.44
21838;BME280;11081;45.946;6.140;2023-08-17T06:38:19;95386.91;;;22.72;63.62
21838;BME280;11081;45.946;6.140;2023-08-17T06:40:47;95397.25;;;22.92;62.33
21838;BME280;11081;45.946;6.140;2023-08-17T06:43:15;95383.75;;;23.02;61.65
21838;BME280;11081;45.946;6.140;2023-08-17T06:45:44;95382.88;;;23.07;61.25
21838;BME280;11081;45.946;6.140;2023-08-17T06:48:12;95394.94;;;23.18;61.43
21838;BME280;11081;45.946;6.140;2023-08-17T06:50:42;95396.91;;;23.26;61.81
21838;BME280;11081;45.946;6.140;2023-08-17T06:53:10;95400.44;;;23.22;62.16
21838;BME280;11081;45.946;6.140;2023-08-17T06:55:38;95378.53;;;22.97;63.45
21838;BME280;11081;45.946;6.140;2023-08-17T06:58:06;95383.06;;;23.10;63.63
21838;BME280;11081;45.946;6.140;2023-08-17T07:00:34;95387.63;;;23.24;63.43
21838;BME280;11081;45.946;6.140;2023-08-17T07:03:03;95383.78;;;23.30;63.17
21838;BME280;11081;45.946;6.140;2023-08-17T07:05:32;95382.63;;;23.36;64.14
21838;BME280;11081;45.946;6.140;2023-08-17T07:08:02;95381.34;;;23.33;63.54
21838;BME280;11081;45.946;6.140;2023-08-17T07:10:31;95390.00;;;23.39;64.13
21838;BME280;11081;45.946;6.140;2023-08-17T07:12:59;95383.50;;;23.45;64.15
21838;BME280;11081;45.946;6.140;2023-08-17T07:15:30;95386.06;;;23.50;64.01
21838;BME280;11081;45.946;6.140;2023-08-17T07:17:58;95379.00;;;23.59;64.46
21838;BME280;11081;45.946;6.140;2023-08-17T07:20:26;95373.06;;;23.62;64.52
21838;BME280;11081;45.946;6.140;2023-08-17T07:22:54;95361.63;;;23.62;64.07
21838;BME280;11081;45.946;6.140;2023-08-17T07:25:24;95353.91;;;23.60;63.63
21838;BME280;11081;45.946;6.140;2023-08-17T07:27:52;95341.53;;;23.51;63.26
21838;BME280;11081;45.946;6.140;2023-08-17T07:30:20;95337.50;;;23.53;62.41
21838;BME280;11081;45.946;6.140;2023-08-17T07:32:48;95338.91;;;23.64;61.79
21838;BME280;11081;45.946;6.140;2023-08-17T07:35:16;95344.59;;;23.71;62.53
21838;BME280;11081;45.946;6.140;2023-08-17T07:37:44;95345.44;;;23.58;63.25
21838;BME280;11081;45.946;6.140;2023-08-17T07:40:30;95345.59;;;23.21;65.47
21838;BME280;11081;45.946;6.140;2023-08-17T07:42:58;95356.84;;;23.18;66.09
21838;BME280;11081;45.946;6.140;2023-08-17T07:45:27;95347.38;;;23.11;65.46
21838;BME280;11081;45.946;6.140;2023-08-17T07:47:55;95348.16;;;23.26;65.30
21838;BME280;11081;45.946;6.140;2023-08-17T07:50:23;95353.31;;;23.36;64.86
21838;BME280;11081;45.946;6.140;2023-08-17T07:52:51;95357.22;;;23.52;65.16
21838;BME280;11081;45.946;6.140;2023-08-17T07:55:19;95338.19;;;23.45;64.38
21838;BME280;11081;45.946;6.140;2023-08-17T07:57:49;95345.63;;;23.34;64.08
21838;BME280;11081;45.946;6.140;2023-08-17T08:00:17;95343.34;;;23.55;63.96
21838;BME280;11081;45.946;6.140;2023-08-17T08:02:46;95340.47;;;23.79;62.26
21838;BME280;11081;45.946;6.140;2023-08-17T08:05:14;95337.06;;;24.01;62.39
21838;BME280;11081;45.946;6.140;2023-08-17T08:07:42;95342.63;;;24.13;62.20
21838;BME280;11081;45.946;6.140;2023-08-17T08:10:10;95340.34;;;24.20;62.56
21838;BME280;11081;45.946;6.140;2023-08-17T08:12:38;95348.84;;;24.22;61.88
21838;BME280;11081;45.946;6.140;2023-08-17T08:15:08;95349.81;;;24.26;60.42
21838;BME280;11081;45.946;6.140;2023-08-17T08:17:36;95350.22;;;24.33;60.01
21838;BME280;11081;45.946;6.140;2023-08-17T08:20:05;95346.84;;;24.42;59.51
21838;BME280;11081;45.946;6.140;2023-08-17T08:22:33;95343.41;;;24.50;58.21
21838;BME280;11081;45.946;6.140;2023-08-17T08:25:02;95349.72;;;24.54;57.31
21838;BME280;11081;45.946;6.140;2023-08-17T08:27:30;95347.34;;;24.52;57.81
21838;BME280;11081;45.946;6.140;2023-08-17T08:29:58;95350.72;;;24.58;57.80
21838;BME280;11081;45.946;6.140;2023-08-17T08:32:27;95346.22;;;24.67;57.67
21838;BME280;11081;45.946;6.140;2023-08-17T08:34:56;95343.88;;;24.74;58.44
21838;BME280;11081;45.946;6.140;2023-08-17T08:37:24;95351.19;;;24.82;58.87
21838;BME280;11081;45.946;6.140;2023-08-17T08:39:53;95355.28;;;24.88;58.32
21838;BME280;11081;45.946;6.140;2023-08-17T08:42:22;95357.03;;;24.93;58.50
21838;BME280;11081;45.946;6.140;2023-08-17T08:44:51;95366.31;;;24.96;58.44
21838;BME280;11081;45.946;6.140;2023-08-17T08:47:19;95364.91;;;24.98;58.31
21838;BME280;11081;45.946;6.140;2023-08-17T08:49:57;95350.69;;;25.03;58.25
21838;BME280;11081;45.946;6.140;2023-08-17T08:52:31;95347.88;;;25.08;58.12
21838;BME280;11081;45.946;6.140;2023-08-17T08:55:06;95351.97;;;25.14;58.82
21838;BME280;11081;45.946;6.140;2023-08-17T08:57:38;95354.50;;;25.19;58.97
21838;BME280;11081;45.946;6.140;2023-08-17T09:00:07;95351.09;;;25.27;59.78
21838;BME280;11081;45.946;6.140;2023-08-17T09:02:36;95346.44;;;25.41;59.20
21838;BME280;11081;45.946;6.140;2023-08-17T09:05:09;95349.47;;;25.57;59.86
21838;BME280;11081;45.946;6.140;2023-08-17T09:07:38;95343.56;;;25.69;58.76
21838;BME280;11081;45.946;6.140;2023-08-17T09:10:08;95335.84;;;25.76;58.21
21838;BME280;11081;45.946;6.140;2023-08-17T09:12:37;95345.66;;;25.89;57.74
21838;BME280;11081;45.946;6.140;2023-08-17T09:15:08;95335.88;;;25.93;56.56
21838;BME280;11081;45.946;6.140;2023-08-17T09:17:36;95338.75;;;26.05;55.61
21838;BME280;11081;45.946;6.140;2023-08-17T09:20:08;95332.59;;;26.13;54.87
21838;BME280;11081;45.946;6.140;2023-08-17T09:22:37;95326.75;;;26.20;54.57
21838;BME280;11081;45.946;6.140;2023-08-17T09:25:07;95326.78;;;26.29;54.48
21838;BME280;11081;45.946;6.140;2023-08-17T09:27:36;95317.97;;;26.37;53.13
21838;BME280;11081;45.946;6.140;2023-08-17T09:30:05;95325.38;;;26.49;52.93
21838;BME280;11081;45.946;6.140;2023-08-17T09:32:34;95325.19;;;26.71;53.21
21838;BME280;11081;45.946;6.140;2023-08-17T09:35:03;95320.09;;;26.87;51.96
21838;BME280;11081;45.946;6.140;2023-08-17T09:37:34;95317.69;;;27.02;51.42
21838;BME280;11081;45.946;6.140;2023-08-17T09:40:02;95316.22;;;27.22;50.70
21838;BME280;11081;45.946;6.140;2023-08-17T09:42:30;95310.50;;;27.32;49.87
21838;BME280;11081;45.946;6.140;2023-08-17T09:45:02;95310.78;;;27.40;49.86
21838;BME280;11081;45.946;6.140;2023-08-17T09:47:30;95304.47;;;27.36;48.74
21838;BME280;11081;45.946;6.140;2023-08-17T09:49:58;95306.47;;;27.47;48.46
21838;BME280;11081;45.946;6.140;2023-08-17T09:52:26;95298.50;;;27.59;47.77
21838;BME280;11081;45.946;6.140;2023-08-17T09:54:57;95288.31;;;27.53;46.91
21838;BME280;11081;45.946;6.140;2023-08-17T09:57:35;95284.94;;;27.64;46.99
21838;BME280;11081;45.946;6.140;2023-08-17T10:00:04;95274.16;;;27.73;46.34
21838;BME280;11081;45.946;6.140;2023-08-17T10:02:34;95278.47;;;27.86;46.11
21838;BME280;11081;45.946;6.140;2023-08-17T10:05:04;95273.16;;;27.99;45.75
21838;BME280;11081;45.946;6.140;2023-08-17T10:07:35;95262.81;;;28.09;44.75
21838;BME280;11081;45.946;6.140;2023-08-17T10:10:09;95256.66;;;28.09;43.72
21838;BME280;11081;45.946;6.140;2023-08-17T10:12:43;95258.19;;;27.98;42.70
21838;BME280;11081;45.946;6.140;2023-08-17T10:15:15;95252.75;;;27.85;43.34
21838;BME280;11081;45.946;6.140;2023-08-17T10:17:51;95254.97;;;27.83;42.89
21838;BME280;11081;45.946;6.140;2023-08-17T10:20:22;95256.53;;;27.84;42.61
21838;BME280;11081;45.946;6.140;2023-08-17T10:22:56;95250.50;;;27.87;43.06
21838;BME280;11081;45.946;6.140;2023-08-17T10:25:31;95251.56;;;27.95;42.82
21838;BME280;11081;45.946;6.140;2023-08-17T10:28:00;95243.84;;;27.93;42.61
21838;BME280;11081;45.946;6.140;2023-08-17T10:30:30;95241.63;;;27.96;42.60
21838;BME280;11081;45.946;6.140;2023-08-17T10:32:59;95232.47;;;27.97;43.06
21838;BME280;11081;45.946;6.140;2023-08-17T10:35:27;95238.28;;;27.99;42.65
21838;BME280;11081;45.946;6.140;2023-08-17T10:37:56;95238.06;;;28.04;42.48
21838;BME280;11081;45.946;6.140;2023-08-17T10:40:27;95236.50;;;28.03;42.30
21838;BME280;11081;45.946;6.140;2023-08-17T10:42:57;95232.03;;;28.07;42.84
21838;BME280;11081;45.946;6.140;2023-08-17T10:45:27;95232.69;;;28.04;42.78
21838;BME280;11081;45.946;6.140;2023-08-17T10:48:24;95231.78;;;28.00;42.39
21838;BME280;11081;45.946;6.140;2023-08-17T10:51:05;95225.19;;;27.97;41.47
21838;BME280;11081;45.946;6.140;2023-08-17T10:53:36;95229.97;;;27.91;42.01
21838;BME280;11081;45.946;6.140;2023-08-17T10:56:13;95229.03;;;27.87;42.62
21838;BME280;11081;45.946;6.140;2023-08-17T10:58:43;95220.53;;;27.85;43.00
21838;BME280;11081;45.946;6.140;2023-08-17T11:01:12;95225.00;;;27.81;43.57
21838;BME280;11081;45.946;6.140;2023-08-17T11:03:41;95220.94;;;27.75;43.51
21838;BME280;11081;45.946;6.140;2023-08-17T11:06:16;95222.91;;;27.66;43.61
21838;BME280;11081;45.946;6.140;2023-08-17T11:08:52;95225.75;;;27.61;43.14
21838;BME280;11081;45.946;6.140;2023-08-17T11:11:23;95230.50;;;27.64;43.47
21838;BME280;11081;45.946;6.140;2023-08-17T11:13:53;95219.09;;;27.67;43.83
21838;BME280;11081;45.946;6.140;2023-08-17T11:16:23;95224.75;;;27.74;43.40
21838;BME280;11081;45.946;6.140;2023-08-17T11:18:51;95223.63;;;27.75;44.03
21838;BME280;11081;45.946;6.140;2023-08-17T11:21:20;95211.78;;;27.76;43.26
21838;BME280;11081;45.946;6.140;2023-08-17T11:23:49;95208.50;;;27.91;43.26
21838;BME280;11081;45.946;6.140;2023-08-17T11:26:17;95202.91;;;28.17;43.07
21838;BME280;11081;45.946;6.140;2023-08-17T11:28:46;95201.31;;;28.49;43.13
21838;BME280;11081;45.946;6.140;2023-08-17T11:31:16;95207.38;;;28.71;42.85
21838;BME280;11081;45.946;6.140;2023-08-17T11:33:44;95203.28;;;28.86;42.36
21838;BME280;11081;45.946;6.140;2023-08-17T11:36:14;95206.53;;;28.91;42.54
21838;BME280;11081;45.946;6.140;2023-08-17T11:38:43;95202.97;;;28.99;42.05
21838;BME280;11081;45.946;6.140;2023-08-17T11:41:11;95196.22;;;29.05;41.89
21838;BME280;11081;45.946;6.140;2023-08-17T11:43:45;95194.31;;;29.06;41.99
21838;BME280;11081;45.946;6.140;2023-08-17T11:46:13;95195.44;;;29.05;41.58
21838;BME280;11081;45.946;6.140;2023-08-17T11:48:44;95197.56;;;29.11;42.10
21838;BME280;11081;45.946;6.140;2023-08-17T11:51:12;95193.53;;;29.18;41.58
21838;BME280;11081;45.946;6.140;2023-08-17T11:53:40;95186.59;;;29.17;41.26
21838;BME280;11081;45.946;6.140;2023-08-17T11:56:14;95186.47;;;29.25;41.05
21838;BME280;11081;45.946;6.140;2023-08-17T11:58:42;95187.91;;;29.35;41.20
21838;BME280;11081;45.946;6.140;2023-08-17T12:01:12;95180.84;;;29.42;41.34
21838;BME280;11081;45.946;6.140;2023-08-17T12:03:45;95174.47;;;29.47;41.29
21838;BME280;11081;45.946;6.140;2023-08-17T12:06:13;95179.84;;;29.47;41.40
21838;BME280;11081;45.946;6.140;2023-08-17T12:08:45;95169.41;;;29.46;40.93
21838;BME280;11081;45.946;6.140;2023-08-17T12:11:15;95169.53;;;29.49;40.20
21838;BME280;11081;45.946;6.140;2023-08-17T12:13:48;95165.47;;;29.55;39.46
21838;BME280;11081;45.946;6.140;2023-08-17T12:16:18;95164.13;;;29.61;39.19
21838;BME280;11081;45.946;6.140;2023-08-17T12:18:49;95164.81;;;29.58;38.45
21838;BME280;11081;45.946;6.140;2023-08-17T12:21:19;95156.66;;;29.70;37.81
21838;BME280;11081;45.946;6.140;2023-08-17T12:23:47;95148.56;;;29.83;37.43
21838;BME280;11081;45.946;6.140;2023-08-17T12:26:18;95157.75;;;29.82;36.22
21838;BME280;11081;45.946;6.140;2023-08-17T12:28:46;95146.22;;;29.81;35.84
21838;BME280;11081;45.946;6.140;2023-08-17T12:31:21;95143.88;;;29.80;35.51
21838;BME280;11081;45.946;6.140;2023-08-17T12:33:51;95146.22;;;29.81;36.19
21838;BME280;11081;45.946;6.140;2023-08-17T12:36:19;95144.53;;;29.77;36.34
21838;BME280;11081;45.946;6.140;2023-08-17T12:38:48;95140.72;;;29.78;36.68
21838;BME280;11081;45.946;6.140;2023-08-17T12:41:16;95137.28;;;29.93;36.55
21838;BME280;11081;45.946;6.140;2023-08-17T12:43:45;95142.19;;;30.03;36.48
21838;BME280;11081;45.946;6.140;2023-08-17T12:46:13;95128.31;;;30.17;36.29
21838;BME280;11081;45.946;6.140;2023-08-17T12:48:41;95131.28;;;30.27;36.52
21838;BME280;11081;45.946;6.140;2023-08-17T12:51:10;95131.19;;;30.40;35.51
21838;BME280;11081;45.946;6.140;2023-08-17T12:53:38;95135.97;;;30.30;35.02
21838;BME280;11081;45.946;6.140;2023-08-17T12:56:06;95138.06;;;30.37;35.11
21838;BME280;11081;45.946;6.140;2023-08-17T12:58:34;95125.56;;;30.45;35.12
21838;BME280;11081;45.946;6.140;2023-08-17T13:01:03;95136.31;;;30.60;35.48
21838;BME280;11081;45.946;6.140;2023-08-17T13:03:31;95135.06;;;30.70;34.40
21838;BME280;11081;45.946;6.140;2023-08-17T13:05:59;95127.97;;;30.81;34.08
21838;BME280;11081;45.946;6.140;2023-08-17T13:08:28;95128.16;;;30.88;35.75
21838;BME280;11081;45.946;6.140;2023-08-17T13:10:56;95119.50;;;30.99;35.70